Paradise, Montana
Current Conditions -  °F | °C
As of 2:53 AM on Friday 31 Oct 2014 (Local Time) from KMLP Reporting Station
Clear Clear  
Wind Chill: 32°   Ceiling: Unl
Heat Index: 39°   Visibility: 10mi
Dew Point: 36°   Wind: 10mph
Humidity: 89%   Direction: 160°SSE
Pressure: 29.9"   Gusts: 18mph
Location:  47.39°N, 114.8°W
Report Text: KMLP 310853Z AUTO 16009G16KT 10SM CLR 04/02 A2990 RMK AO2 SLP081 T00390022 56018
Loading
Personal Weather Stations






























Interactive Weather Map New forecast layout! Learn more

10-Day Weather Forecast

Advertisements
Track Severe Weather on mobile